createdAt,value
2022-09-27T00:04:33.921Z,19.20
2022-09-27T00:09:34.050Z,19.60
2022-09-27T00:14:33.965Z,19.50
2022-09-27T00:19:34.266Z,21.10
2022-09-27T00:24:34.294Z,21.70
2022-09-27T00:29:34.348Z,21.50
2022-09-27T00:34:34.192Z,21.90
2022-09-27T00:39:33.953Z,23.10
2022-09-27T00:44:53.734Z,22.50
2022-09-27T00:49:39.194Z,24.90
2022-09-27T00:54:37.958Z,23.50
2022-09-27T00:59:37.591Z,23.80
2022-09-27T01:04:37.452Z,26.10
2022-09-27T01:09:34.609Z,25.80
2022-09-27T01:14:48.072Z,25.20
2022-09-27T01:19:49.033Z,25.20
2022-09-27T01:24:52.458Z,25.10
2022-09-27T01:29:48.857Z,25.80
2022-09-27T01:34:44.082Z,26.80
2022-09-27T01:39:44.412Z,27.00
2022-09-27T01:44:38.728Z,26.60
2022-09-27T01:49:40.248Z,28.00
2022-09-27T01:54:39.970Z,27.40
2022-09-27T01:59:39.845Z,27.60
2022-09-27T02:04:37.422Z,27.50
2022-09-27T02:09:38.414Z,26.50
2022-09-27T02:14:40.779Z,28.50
2022-09-27T02:19:39.909Z,27.60
2022-09-27T02:24:40.189Z,27.20
2022-09-27T02:29:40.234Z,28.90
2022-09-27T02:34:36.624Z,29.70
2022-09-27T02:39:34.202Z,28.40
2022-09-27T02:44:34.169Z,28.80
2022-09-27T02:49:48.970Z,30.90
2022-09-27T02:54:43.244Z,31.40
2022-09-27T02:59:41.069Z,30.90
2022-09-27T03:04:38.815Z,30.20
2022-09-27T03:09:41.526Z,31.80
2022-09-27T03:14:33.773Z,32.60
2022-09-27T03:19:34.054Z,30.70
2022-09-27T03:24:33.928Z,31.60
2022-09-27T03:29:33.797Z,31.70
2022-09-27T03:34:34.214Z,33.30
2022-09-27T03:39:33.848Z,35.00
2022-09-27T03:44:33.862Z,34.60
2022-09-27T03:49:34.451Z,32.90
2022-09-27T03:54:33.736Z,32.60
2022-09-27T03:59:33.755Z,35.40
2022-09-27T04:04:33.963Z,33.20
2022-09-27T04:09:33.734Z,33.10
2022-09-27T04:14:33.713Z,32.70
2022-09-27T04:19:33.877Z,34.10
2022-09-27T04:24:33.711Z,38.20
2022-09-27T04:29:34.002Z,36.60
2022-09-27T04:34:46.014Z,38.10
2022-09-27T04:39:35.892Z,37.60
2022-09-27T04:44:33.747Z,36.30
2022-09-27T04:49:34.362Z,35.50
2022-09-27T04:54:33.719Z,36.20
2022-09-27T04:59:33.769Z,38.60
2022-09-27T05:04:34.509Z,37.90
2022-09-27T05:09:33.773Z,38.40
2022-09-27T05:14:33.841Z,39.50
2022-09-27T05:19:34.140Z,40.80
2022-09-27T05:24:34.603Z,39.30
2022-09-27T05:29:34.514Z,40.30
2022-09-27T05:34:33.937Z,44.30
2022-09-27T05:39:33.645Z,44.40
2022-09-27T05:44:34.396Z,44.10
2022-09-27T05:49:33.903Z,48.60
2022-09-27T05:54:33.761Z,48.00
2022-09-27T05:59:33.929Z,48.20
2022-09-27T06:04:34.146Z,46.70
2022-09-27T06:09:33.945Z,40.60
2022-09-27T06:14:34.076Z,37.20
2022-09-27T06:19:34.688Z,33.50
2022-09-27T06:24:33.905Z,31.40
2022-09-27T06:29:34.749Z,28.40
2022-09-27T06:34:33.816Z,25.70
2022-09-27T06:39:34.092Z,24.90
2022-09-27T06:44:33.972Z,25.60
2022-09-27T06:46:09.381Z,25.60
2022-09-27T06:49:33.698Z,25.70
2022-09-27T06:54:34.268Z,23.40
2022-09-27T06:59:43.776Z,24.40
2022-09-27T07:04:33.761Z,25.20
2022-09-27T07:09:33.917Z,26.70
2022-09-27T07:14:34.194Z,28.10
2022-09-27T07:19:33.869Z,27.20
2022-09-27T07:24:33.831Z,30.50
2022-09-27T07:29:33.910Z,29.20
2022-09-27T07:34:33.693Z,30.20
2022-09-27T07:39:33.834Z,29.30
2022-09-27T07:44:33.971Z,27.10
2022-09-27T07:49:33.664Z,29.20
2022-09-27T07:54:33.892Z,28.30
2022-09-27T07:59:34.000Z,27.40
2022-09-27T08:04:33.661Z,28.00
2022-09-27T08:09:34.233Z,25.70
2022-09-27T08:14:37.813Z,39.90
2022-09-27T08:19:33.578Z,26.80
2022-09-27T08:24:33.668Z,24.30
2022-09-27T08:29:34.110Z,23.80
2022-09-27T08:34:33.945Z,25.40
2022-09-27T08:39:33.677Z,24.80
2022-09-27T08:44:43.995Z,23.90
2022-09-27T08:49:38.729Z,24.30
2022-09-27T08:54:35.487Z,27.10
2022-09-27T08:59:39.141Z,25.50
2022-09-27T09:04:37.749Z,27.50
2022-09-27T09:09:41.238Z,27.40
2022-09-27T09:14:50.320Z,27.60
2022-09-27T09:19:52.870Z,26.90
2022-09-27T09:24:46.206Z,27.80
2022-09-27T09:29:49.823Z,27.60
2022-09-27T09:34:39.163Z,27.30
2022-09-27T09:39:38.186Z,27.20
2022-09-27T09:44:44.246Z,27.20
2022-09-27T09:49:41.198Z,32.10
2022-09-27T09:52:09.394Z,24.80
2022-09-27T09:54:39.446Z,24.80
2022-09-27T09:59:40.270Z,23.10
2022-09-27T10:04:33.644Z,21.90
2022-09-27T10:09:33.644Z,21.00
2022-09-27T10:14:34.027Z,19.70
2022-09-27T10:19:36.510Z,19.20
2022-09-27T10:24:53.451Z,19.90
2022-09-27T10:29:37.591Z,16.70
2022-09-27T10:34:36.410Z,14.70
2022-09-27T10:39:36.081Z,14.50
2022-09-27T10:44:33.695Z,14.00
2022-09-27T10:49:36.406Z,15.10
2022-09-27T10:54:36.277Z,14.70
2022-09-27T10:59:37.870Z,14.60
2022-09-27T11:04:35.913Z,16.10
2022-09-27T11:09:45.274Z,17.10
2022-09-27T11:14:33.584Z,17.50
2022-09-27T11:19:43.313Z,16.90
2022-09-27T11:24:44.417Z,16.70
2022-09-27T11:29:49.849Z,17.60
2022-09-27T11:34:46.516Z,18.20
2022-09-27T11:39:44.544Z,17.00
2022-09-27T11:44:47.401Z,17.40
2022-09-27T11:49:52.184Z,15.80
2022-09-27T11:54:48.881Z,15.60
2022-09-27T11:59:46.009Z,15.70
2022-09-27T12:04:50.121Z,18.60
2022-09-27T12:09:38.080Z,17.50
2022-09-27T12:14:37.972Z,18.00
2022-09-27T12:19:38.506Z,17.60
2022-09-27T12:24:33.730Z,16.00
2022-09-27T12:29:37.388Z,16.30
2022-09-27T12:34:39.406Z,16.60
2022-09-27T12:39:45.989Z,15.70
2022-09-27T12:44:38.850Z,15.00
2022-09-27T12:49:44.891Z,14.70
2022-09-27T12:54:50.598Z,13.70
2022-09-27T12:59:44.966Z,14.30
2022-09-27T13:04:47.824Z,13.00
2022-09-27T13:09:42.617Z,14.90
2022-09-27T13:14:39.711Z,12.50
2022-09-27T13:19:39.350Z,12.00
2022-09-27T13:24:43.193Z,11.10
2022-09-27T13:29:35.364Z,10.40
2022-09-27T13:34:38.106Z,10.40
2022-09-27T13:39:33.467Z,10.70
2022-09-27T13:44:42.097Z,10.00
2022-09-27T13:49:36.791Z,9.70
2022-09-27T13:54:38.117Z,10.10
2022-09-27T13:59:43.250Z,10.00
2022-09-27T14:04:40.942Z,10.80
2022-09-27T14:09:38.064Z,9.40
2022-09-27T14:14:35.131Z,8.90
2022-09-27T14:19:38.898Z,9.20
2022-09-27T14:24:45.122Z,8.30
2022-09-27T14:29:40.055Z,8.30
2022-09-27T14:32:47.860Z,8.50
2022-09-27T14:34:33.340Z,8.50
2022-09-27T14:39:36.871Z,8.90
2022-09-27T14:44:34.516Z,8.70
2022-09-27T14:49:33.399Z,8.40
2022-09-27T14:54:33.500Z,8.20
2022-09-27T14:59:36.825Z,8.20
2022-09-27T15:04:33.552Z,7.90
2022-09-27T15:09:34.224Z,7.90
2022-09-27T15:14:40.223Z,8.10
2022-09-27T15:19:33.572Z,8.00
2022-09-27T15:24:38.971Z,8.20
2022-09-27T15:29:33.568Z,9.20
2022-09-27T15:34:34.855Z,8.10
2022-09-27T15:39:36.261Z,8.20
2022-09-27T15:44:36.879Z,8.80
2022-09-27T15:49:33.441Z,8.50
2022-09-27T15:54:35.447Z,8.30
2022-09-27T15:59:35.109Z,8.90
2022-09-27T16:04:33.325Z,9.30
2022-09-27T16:09:33.825Z,9.40
2022-09-27T16:14:33.384Z,9.30
2022-09-27T16:19:33.469Z,8.30
2022-09-27T16:24:33.387Z,9.10
2022-09-27T16:29:33.327Z,9.00
2022-09-27T16:34:33.377Z,9.30
2022-09-27T16:39:33.286Z,9.90
2022-09-27T16:44:35.160Z,9.60
2022-09-27T16:49:43.385Z,9.40
2022-09-27T16:54:33.238Z,9.40
2022-09-27T16:59:34.100Z,10.40
2022-09-27T17:04:33.269Z,10.50
2022-09-27T17:09:33.263Z,10.70
2022-09-27T17:14:33.678Z,10.70
2022-09-27T17:19:33.392Z,10.60
2022-09-27T17:24:33.488Z,11.00
2022-09-27T17:29:34.317Z,12.50
2022-09-27T17:34:33.635Z,12.20
2022-09-27T17:39:33.257Z,13.80
2022-09-27T17:44:33.921Z,12.70
2022-09-27T17:49:43.282Z,12.70
2022-09-27T17:54:33.324Z,13.10
2022-09-27T17:59:34.511Z,90.00
2022-09-27T18:04:33.365Z,20.30
2022-09-27T18:09:33.518Z,19.40
2022-09-27T18:14:33.846Z,31.10
2022-09-27T18:19:33.392Z,17.60
2022-09-27T18:24:33.457Z,17.00
2022-09-27T18:29:33.624Z,23.30
2022-09-27T18:34:33.422Z,56.90
2022-09-27T18:39:33.330Z,21.40
2022-09-27T18:44:33.721Z,19.60
2022-09-27T18:49:34.300Z,17.50
2022-09-27T18:54:34.229Z,24.00
2022-09-27T18:59:34.445Z,18.60
2022-09-27T19:04:33.242Z,16.30
2022-09-27T19:09:33.311Z,15.40
2022-09-27T19:14:34.212Z,14.60
2022-09-27T19:19:33.230Z,16.60
2022-09-27T19:24:33.173Z,16.40
2022-09-27T19:29:35.736Z,16.20
2022-09-27T19:34:33.190Z,16.20
2022-09-27T19:39:33.264Z,17.40
2022-09-27T19:44:33.468Z,16.10
2022-09-27T19:49:33.639Z,16.20
2022-09-27T19:54:33.200Z,16.10
2022-09-27T19:59:33.572Z,15.10
2022-09-27T20:04:33.189Z,15.60
2022-09-27T20:09:34.839Z,14.10
2022-09-27T20:14:33.448Z,14.90
2022-09-27T20:19:33.231Z,15.50
2022-09-27T20:24:33.176Z,16.30
2022-09-27T20:29:33.410Z,15.00
2022-09-27T20:34:33.296Z,15.00
2022-09-27T20:39:33.239Z,14.90
2022-09-27T20:44:33.513Z,13.40
2022-09-27T20:49:33.479Z,14.20
2022-09-27T20:54:33.826Z,14.90
2022-09-27T20:59:33.074Z,14.10
2022-09-27T21:04:33.377Z,13.40
2022-09-27T21:09:34.947Z,14.40
2022-09-27T21:14:33.068Z,14.70
2022-09-27T21:19:34.141Z,15.00
2022-09-27T21:24:33.088Z,16.10
2022-09-27T21:29:33.599Z,15.60
2022-09-27T21:34:33.217Z,15.30
2022-09-27T21:39:33.209Z,15.70
2022-09-27T21:44:33.036Z,16.10
2022-09-27T21:49:33.567Z,16.20
2022-09-27T21:54:33.087Z,15.50
2022-09-27T21:59:33.098Z,16.20
2022-09-27T22:04:33.119Z,16.00
2022-09-27T22:09:33.186Z,16.10
2022-09-27T22:14:33.614Z,17.00
2022-09-27T22:19:33.065Z,16.10
2022-09-27T22:24:33.353Z,15.40
2022-09-27T22:29:33.405Z,15.60
2022-09-27T22:34:33.059Z,16.30
2022-09-27T22:39:33.235Z,15.50
2022-09-27T22:44:33.370Z,15.60
2022-09-27T22:49:33.015Z,15.50
2022-09-27T22:54:33.338Z,17.20
2022-09-27T22:59:33.345Z,16.60
2022-09-27T23:04:33.084Z,16.10
2022-09-27T23:09:33.592Z,17.00
2022-09-27T23:14:33.226Z,17.50
2022-09-27T23:19:33.606Z,18.60
2022-09-27T23:24:33.115Z,16.70
2022-09-27T23:29:33.370Z,16.70
2022-09-27T23:34:33.277Z,18.10
2022-09-27T23:39:33.181Z,16.90
2022-09-27T23:44:33.429Z,17.40
2022-09-27T23:49:33.115Z,17.90
2022-09-27T23:54:33.002Z,17.70
2022-09-27T23:59:33.698Z,17.10
